Brighton Township, Michigan
Current Conditions -  °F | °C
As of 12:15 AM on Monday 20 Oct 2014 (Local Time) from KOZW Reporting Station
Overcast Overcast  
Wind Chill: 43°   Ceiling: 9000
Heat Index: 47°   Visibility: 10mi
Dew Point: 37°   Wind: 7mph
Humidity: 67%   Direction: 200°SSW
Pressure: 29.95"   Gusts: NA
Location:  42.5333°N, 83.7735°W
Report Text: KOZW 200415Z AUTO 20006KT 10SM OVC090 08/03 A2995 RMK AO2 T00820025
Loading
Personal Weather Stations






























Interactive Weather Map
Tropical Storm Tracking
New forecast layout! Learn more

10-Day Weather Forecast

Advertisements
Track Severe Weather on mobile